sensor_id;sensor_type;location;lat;lon;timestamp;temperature;humidity
31677;DHT22;18385;51.572;6.578;2023-03-12T00:01:47;6.50;56.10
31677;DHT22;18385;51.572;6.578;2023-03-12T00:04:12;6.50;56.70
31677;DHT22;18385;51.572;6.578;2023-03-12T00:06:38;6.50;56.00
31677;DHT22;18385;51.572;6.578;2023-03-12T00:09:04;6.50;56.00
31677;DHT22;18385;51.572;6.578;2023-03-12T00:11:30;6.60;56.00
31677;DHT22;18385;51.572;6.578;2023-03-12T00:13:57;6.60;55.90
31677;DHT22;18385;51.572;6.578;2023-03-12T00:16:25;6.60;55.90
31677;DHT22;18385;51.572;6.578;2023-03-12T00:18:52;6.60;55.90
31677;DHT22;18385;51.572;6.578;2023-03-12T00:21:19;6.60;55.90
31677;DHT22;18385;51.572;6.578;2023-03-12T00:23:46;6.60;55.90
31677;DHT22;18385;51.572;6.578;2023-03-12T00:26:13;6.60;55.90
31677;DHT22;18385;51.572;6.578;2023-03-12T00:28:39;6.50;55.80
31677;DHT22;18385;51.572;6.578;2023-03-12T00:31:17;6.50;55.90
31677;DHT22;18385;51.572;6.578;2023-03-12T00:33:43;6.50;55.90
31677;DHT22;18385;51.572;6.578;2023-03-12T00:36:09;6.50;55.90
31677;DHT22;18385;51.572;6.578;2023-03-12T00:38:35;6.50;56.00
31677;DHT22;18385;51.572;6.578;2023-03-12T00:41:01;6.50;56.00
31677;DHT22;18385;51.572;6.578;2023-03-12T00:43:27;6.50;56.00
31677;DHT22;18385;51.572;6.578;2023-03-12T00:45:52;6.50;56.00
31677;DHT22;18385;51.572;6.578;2023-03-12T00:48:18;6.50;56.00
31677;DHT22;18385;51.572;6.578;2023-03-12T00:50:44;6.50;56.00
31677;DHT22;18385;51.572;6.578;2023-03-12T00:53:09;6.50;56.00
31677;DHT22;18385;51.572;6.578;2023-03-12T00:55:35;6.50;56.00
31677;DHT22;18385;51.572;6.578;2023-03-12T00:58:01;6.50;56.00
31677;DHT22;18385;51.572;6.578;2023-03-12T01:00:26;6.50;56.10
31677;DHT22;18385;51.572;6.578;2023-03-12T01:02:52;6.50;56.10
31677;DHT22;18385;51.572;6.578;2023-03-12T01:05:18;6.50;56.10
31677;DHT22;18385;51.572;6.578;2023-03-12T01:07:43;6.50;56.10
31677;DHT22;18385;51.572;6.578;2023-03-12T01:10:12;6.60;56.10
31677;DHT22;18385;51.572;6.578;2023-03-12T01:12:38;6.60;56.10
31677;DHT22;18385;51.572;6.578;2023-03-12T01:15:04;6.60;56.10
31677;DHT22;18385;51.572;6.578;2023-03-12T01:17:30;6.60;56.00
31677;DHT22;18385;51.572;6.578;2023-03-12T01:19:55;6.60;56.00
31677;DHT22;18385;51.572;6.578;2023-03-12T01:22:21;6.60;56.00
31677;DHT22;18385;51.572;6.578;2023-03-12T01:24:47;6.60;56.00
31677;DHT22;18385;51.572;6.578;2023-03-12T01:27:14;6.70;56.00
31677;DHT22;18385;51.572;6.578;2023-03-12T01:29:39;6.70;56.00
31677;DHT22;18385;51.572;6.578;2023-03-12T01:32:05;6.60;55.90
31677;DHT22;18385;51.572;6.578;2023-03-12T01:34:31;6.70;56.00
31677;DHT22;18385;51.572;6.578;2023-03-12T01:36:58;6.70;56.00
31677;DHT22;18385;51.572;6.578;2023-03-12T01:39:23;6.70;56.00
31677;DHT22;18385;51.572;6.578;2023-03-12T01:41:50;6.70;56.00
31677;DHT22;18385;51.572;6.578;2023-03-12T01:44:16;6.60;55.90
31677;DHT22;18385;51.572;6.578;2023-03-12T01:46:43;6.60;55.90
31677;DHT22;18385;51.572;6.578;2023-03-12T01:52:01;6.60;56.10
31677;DHT22;18385;51.572;6.578;2023-03-12T01:54:45;6.60;56.10
31677;DHT22;18385;51.572;6.578;2023-03-12T01:57:23;6.50;56.10
31677;DHT22;18385;51.572;6.578;2023-03-12T01:59:53;6.50;56.20
31677;DHT22;18385;51.572;6.578;2023-03-12T02:02:21;6.50;56.30
31677;DHT22;18385;51.572;6.578;2023-03-12T02:07:52;6.60;56.80
31677;DHT22;18385;51.572;6.578;2023-03-12T02:10:18;6.50;56.20
31677;DHT22;18385;51.572;6.578;2023-03-12T02:12:44;6.50;56.20
31677;DHT22;18385;51.572;6.578;2023-03-12T02:15:10;6.50;56.20
31677;DHT22;18385;51.572;6.578;2023-03-12T02:17:37;6.50;56.20
31677;DHT22;18385;51.572;6.578;2023-03-12T02:20:29;6.50;56.20
31677;DHT22;18385;51.572;6.578;2023-03-12T02:23:03;6.50;56.20
31677;DHT22;18385;51.572;6.578;2023-03-12T02:25:37;6.50;56.30
31677;DHT22;18385;51.572;6.578;2023-03-12T02:28:07;6.50;56.20
31677;DHT22;18385;51.572;6.578;2023-03-12T02:30:35;6.50;56.20
31677;DHT22;18385;51.572;6.578;2023-03-12T02:33:05;6.50;56.20
31677;DHT22;18385;51.572;6.578;2023-03-12T02:35:32;6.50;56.20
31677;DHT22;18385;51.572;6.578;2023-03-12T02:37:58;6.40;56.20
31677;DHT22;18385;51.572;6.578;2023-03-12T02:40:44;6.40;56.20
31677;DHT22;18385;51.572;6.578;2023-03-12T02:43:12;6.40;56.20
31677;DHT22;18385;51.572;6.578;2023-03-12T02:45:40;6.30;56.30
31677;DHT22;18385;51.572;6.578;2023-03-12T02:48:08;6.20;56.30
31677;DHT22;18385;51.572;6.578;2023-03-12T02:50:33;6.20;56.40
31677;DHT22;18385;51.572;6.578;2023-03-12T02:52:59;6.20;56.40
31677;DHT22;18385;51.572;6.578;2023-03-12T02:55:25;6.20;56.40
31677;DHT22;18385;51.572;6.578;2023-03-12T02:57:50;6.20;56.40
31677;DHT22;18385;51.572;6.578;2023-03-12T03:00:17;6.20;56.40
31677;DHT22;18385;51.572;6.578;2023-03-12T03:02:47;6.20;56.50
31677;DHT22;18385;51.572;6.578;2023-03-12T03:05:13;6.20;56.50
31677;DHT22;18385;51.572;6.578;2023-03-12T03:07:38;6.30;56.50
31677;DHT22;18385;51.572;6.578;2023-03-12T03:10:05;6.30;56.40
31677;DHT22;18385;51.572;6.578;2023-03-12T03:12:35;6.30;56.40
31677;DHT22;18385;51.572;6.578;2023-03-12T03:15:04;6.40;56.40
31677;DHT22;18385;51.572;6.578;2023-03-12T03:17:29;6.40;56.40
31677;DHT22;18385;51.572;6.578;2023-03-12T03:19:55;6.30;56.40
31677;DHT22;18385;51.572;6.578;2023-03-12T03:22:21;6.30;56.40
31677;DHT22;18385;51.572;6.578;2023-03-12T03:24:47;6.30;56.40
31677;DHT22;18385;51.572;6.578;2023-03-12T03:27:13;6.30;56.40
31677;DHT22;18385;51.572;6.578;2023-03-12T03:29:40;6.30;56.50
31677;DHT22;18385;51.572;6.578;2023-03-12T03:32:06;6.30;56.50
31677;DHT22;18385;51.572;6.578;2023-03-12T03:34:33;6.30;56.50
31677;DHT22;18385;51.572;6.578;2023-03-12T03:36:58;6.30;56.50
31677;DHT22;18385;51.572;6.578;2023-03-12T03:39:24;6.30;56.50
31677;DHT22;18385;51.572;6.578;2023-03-12T03:41:50;6.40;56.50
31677;DHT22;18385;51.572;6.578;2023-03-12T03:44:19;6.40;56.50
31677;DHT22;18385;51.572;6.578;2023-03-12T03:46:49;6.40;56.50
31677;DHT22;18385;51.572;6.578;2023-03-12T03:49:15;6.40;56.50
31677;DHT22;18385;51.572;6.578;2023-03-12T03:51:41;6.40;56.40
31677;DHT22;18385;51.572;6.578;2023-03-12T03:54:10;6.50;56.50
31677;DHT22;18385;51.572;6.578;2023-03-12T03:56:36;6.50;56.40
31677;DHT22;18385;51.572;6.578;2023-03-12T03:59:03;6.60;56.50
31677;DHT22;18385;51.572;6.578;2023-03-12T04:01:31;6.60;56.40
31677;DHT22;18385;51.572;6.578;2023-03-12T04:03:58;6.60;56.40
31677;DHT22;18385;51.572;6.578;2023-03-12T04:06:24;6.60;56.30
31677;DHT22;18385;51.572;6.578;2023-03-12T04:08:51;6.60;56.30
31677;DHT22;18385;51.572;6.578;2023-03-12T04:11:19;6.70;56.40
31677;DHT22;18385;51.572;6.578;2023-03-12T04:13:46;6.70;56.40
31677;DHT22;18385;51.572;6.578;2023-03-12T04:16:14;6.70;56.40
31677;DHT22;18385;51.572;6.578;2023-03-12T04:18:41;6.70;56.40
31677;DHT22;18385;51.572;6.578;2023-03-12T04:21:08;6.70;56.40
31677;DHT22;18385;51.572;6.578;2023-03-12T04:23:35;6.80;56.40
31677;DHT22;18385;51.572;6.578;2023-03-12T04:26:01;6.80;56.40
31677;DHT22;18385;51.572;6.578;2023-03-12T04:28:28;6.90;56.40
31677;DHT22;18385;51.572;6.578;2023-03-12T04:30:59;6.90;56.30
31677;DHT22;18385;51.572;6.578;2023-03-12T04:33:29;6.90;56.30
31677;DHT22;18385;51.572;6.578;2023-03-12T04:35:55;6.90;56.30
31677;DHT22;18385;51.572;6.578;2023-03-12T04:38:23;6.80;56.30
31677;DHT22;18385;51.572;6.578;2023-03-12T04:40:59;6.80;56.40
31677;DHT22;18385;51.572;6.578;2023-03-12T04:43:26;6.90;56.40
31677;DHT22;18385;51.572;6.578;2023-03-12T04:45:53;6.80;56.40
31677;DHT22;18385;51.572;6.578;2023-03-12T04:48:19;6.80;56.40
31677;DHT22;18385;51.572;6.578;2023-03-12T04:50:46;6.80;56.40
31677;DHT22;18385;51.572;6.578;2023-03-12T04:53:12;6.80;56.40
31677;DHT22;18385;51.572;6.578;2023-03-12T04:55:38;6.90;56.40
31677;DHT22;18385;51.572;6.578;2023-03-12T04:58:04;6.80;56.40
31677;DHT22;18385;51.572;6.578;2023-03-12T05:00:29;6.90;56.40
31677;DHT22;18385;51.572;6.578;2023-03-12T05:02:56;6.90;56.50
31677;DHT22;18385;51.572;6.578;2023-03-12T05:05:21;6.90;56.40
31677;DHT22;18385;51.572;6.578;2023-03-12T05:07:47;6.90;56.40
31677;DHT22;18385;51.572;6.578;2023-03-12T05:10:13;6.90;56.40
31677;DHT22;18385;51.572;6.578;2023-03-12T05:12:39;6.90;56.40
31677;DHT22;18385;51.572;6.578;2023-03-12T05:15:06;7.00;56.40
31677;DHT22;18385;51.572;6.578;2023-03-12T05:17:32;7.00;56.40
31677;DHT22;18385;51.572;6.578;2023-03-12T05:19:58;7.00;56.40
31677;DHT22;18385;51.572;6.578;2023-03-12T05:22:24;6.90;56.80
31677;DHT22;18385;51.572;6.578;2023-03-12T05:24:50;6.90;56.40
31677;DHT22;18385;51.572;6.578;2023-03-12T05:27:16;6.90;56.40
31677;DHT22;18385;51.572;6.578;2023-03-12T05:29:42;6.90;56.50
31677;DHT22;18385;51.572;6.578;2023-03-12T05:32:08;6.80;56.50
31677;DHT22;18385;51.572;6.578;2023-03-12T05:34:34;6.80;56.60
31677;DHT22;18385;51.572;6.578;2023-03-12T05:37:00;6.80;56.70
31677;DHT22;18385;51.572;6.578;2023-03-12T05:39:27;6.80;56.70
31677;DHT22;18385;51.572;6.578;2023-03-12T05:41:57;6.80;56.60
31677;DHT22;18385;51.572;6.578;2023-03-12T05:44:24;6.80;56.70
31677;DHT22;18385;51.572;6.578;2023-03-12T05:46:52;6.80;56.70
31677;DHT22;18385;51.572;6.578;2023-03-12T05:49:22;6.80;56.80
31677;DHT22;18385;51.572;6.578;2023-03-12T05:51:49;6.70;56.80
31677;DHT22;18385;51.572;6.578;2023-03-12T05:54:16;6.70;56.80
31677;DHT22;18385;51.572;6.578;2023-03-12T05:56:42;6.80;56.90
31677;DHT22;18385;51.572;6.578;2023-03-12T05:59:09;6.80;57.50
31677;DHT22;18385;51.572;6.578;2023-03-12T06:01:39;6.80;56.80
31677;DHT22;18385;51.572;6.578;2023-03-12T06:04:05;6.80;56.80
31677;DHT22;18385;51.572;6.578;2023-03-12T06:06:32;6.80;56.80
31677;DHT22;18385;51.572;6.578;2023-03-12T06:09:00;6.80;57.00
31677;DHT22;18385;51.572;6.578;2023-03-12T06:11:26;6.80;57.00
31677;DHT22;18385;51.572;6.578;2023-03-12T06:13:51;6.90;57.00
31677;DHT22;18385;51.572;6.578;2023-03-12T06:16:22;6.90;57.10
31677;DHT22;18385;51.572;6.578;2023-03-12T06:18:52;7.00;57.10
31677;DHT22;18385;51.572;6.578;2023-03-12T06:21:20;7.10;57.10
31677;DHT22;18385;51.572;6.578;2023-03-12T06:23:48;7.10;56.90
31677;DHT22;18385;51.572;6.578;2023-03-12T06:26:21;7.10;56.90
31677;DHT22;18385;51.572;6.578;2023-03-12T06:28:48;7.10;57.40
31677;DHT22;18385;51.572;6.578;2023-03-12T06:31:14;7.10;57.00
31677;DHT22;18385;51.572;6.578;2023-03-12T06:33:40;7.00;57.00
31677;DHT22;18385;51.572;6.578;2023-03-12T06:36:07;7.00;57.10
31677;DHT22;18385;51.572;6.578;2023-03-12T06:38:33;7.10;57.20
31677;DHT22;18385;51.572;6.578;2023-03-12T06:41:06;7.10;57.20
31677;DHT22;18385;51.572;6.578;2023-03-12T06:43:33;7.10;57.20
31677;DHT22;18385;51.572;6.578;2023-03-12T06:46:00;7.10;57.30
31677;DHT22;18385;51.572;6.578;2023-03-12T06:48:28;7.20;57.30
31677;DHT22;18385;51.572;6.578;2023-03-12T06:50:54;7.20;57.20
31677;DHT22;18385;51.572;6.578;2023-03-12T06:53:20;7.20;57.20
31677;DHT22;18385;51.572;6.578;2023-03-12T06:55:49;7.30;57.30
31677;DHT22;18385;51.572;6.578;2023-03-12T06:58:15;7.30;57.30
31677;DHT22;18385;51.572;6.578;2023-03-12T07:00:41;7.40;57.30
31677;DHT22;18385;51.572;6.578;2023-03-12T07:03:07;7.40;57.30
31677;DHT22;18385;51.572;6.578;2023-03-12T07:05:32;7.40;57.30
31677;DHT22;18385;51.572;6.578;2023-03-12T07:07:58;7.40;57.30
31677;DHT22;18385;51.572;6.578;2023-03-12T07:10:24;7.40;57.40
31677;DHT22;18385;51.572;6.578;2023-03-12T07:12:52;7.40;57.40
31677;DHT22;18385;51.572;6.578;2023-03-12T07:15:19;7.30;57.50
31677;DHT22;18385;51.572;6.578;2023-03-12T07:17:45;7.30;57.50
31677;DHT22;18385;51.572;6.578;2023-03-12T07:20:11;7.30;57.70
31677;DHT22;18385;51.572;6.578;2023-03-12T07:22:37;7.30;57.80
31677;DHT22;18385;51.572;6.578;2023-03-12T07:25:03;7.30;57.80
31677;DHT22;18385;51.572;6.578;2023-03-12T07:27:29;7.40;57.90
31677;DHT22;18385;51.572;6.578;2023-03-12T07:29:55;7.40;58.00
31677;DHT22;18385;51.572;6.578;2023-03-12T07:32:20;7.50;58.10
31677;DHT22;18385;51.572;6.578;2023-03-12T07:34:46;7.50;58.00
31677;DHT22;18385;51.572;6.578;2023-03-12T07:37:11;7.50;58.00
31677;DHT22;18385;51.572;6.578;2023-03-12T07:39:37;7.50;58.00
31677;DHT22;18385;51.572;6.578;2023-03-12T07:42:03;7.50;58.10
31677;DHT22;18385;51.572;6.578;2023-03-12T07:44:31;7.60;58.20
31677;DHT22;18385;51.572;6.578;2023-03-12T07:46:58;7.60;58.30
31677;DHT22;18385;51.572;6.578;2023-03-12T07:49:23;7.60;58.30
31677;DHT22;18385;51.572;6.578;2023-03-12T07:51:49;7.60;58.30
31677;DHT22;18385;51.572;6.578;2023-03-12T07:54:15;7.70;58.40
31677;DHT22;18385;51.572;6.578;2023-03-12T07:56:40;7.80;58.50
31677;DHT22;18385;51.572;6.578;2023-03-12T07:59:06;7.80;58.50
31677;DHT22;18385;51.572;6.578;2023-03-12T08:01:32;8.00;58.60
31677;DHT22;18385;51.572;6.578;2023-03-12T08:03:58;8.10;58.50
31677;DHT22;18385;51.572;6.578;2023-03-12T08:06:24;8.20;58.50
31677;DHT22;18385;51.572;6.578;2023-03-12T08:08:50;8.30;58.50
31677;DHT22;18385;51.572;6.578;2023-03-12T08:11:16;8.30;58.40
31677;DHT22;18385;51.572;6.578;2023-03-12T08:13:42;8.40;58.50
31677;DHT22;18385;51.572;6.578;2023-03-12T08:16:08;8.50;58.50
31677;DHT22;18385;51.572;6.578;2023-03-12T08:18:33;8.60;58.40
31677;DHT22;18385;51.572;6.578;2023-03-12T08:20:59;8.60;58.40
31677;DHT22;18385;51.572;6.578;2023-03-12T08:23:25;8.70;58.50
31677;DHT22;18385;51.572;6.578;2023-03-12T08:25:52;8.80;58.40
31677;DHT22;18385;51.572;6.578;2023-03-12T08:28:19;8.90;58.50
31677;DHT22;18385;51.572;6.578;2023-03-12T08:30:47;9.00;58.40
31677;DHT22;18385;51.572;6.578;2023-03-12T08:33:12;9.00;58.40
31677;DHT22;18385;51.572;6.578;2023-03-12T08:35:38;9.00;58.30
31677;DHT22;18385;51.572;6.578;2023-03-12T08:38:05;9.00;58.40
31677;DHT22;18385;51.572;6.578;2023-03-12T08:40:30;9.00;58.60
31677;DHT22;18385;51.572;6.578;2023-03-12T08:42:56;9.00;58.60
31677;DHT22;18385;51.572;6.578;2023-03-12T08:45:21;8.90;58.50
31677;DHT22;18385;51.572;6.578;2023-03-12T08:47:47;8.90;58.50
31677;DHT22;18385;51.572;6.578;2023-03-12T08:50:13;8.70;58.60
31677;DHT22;18385;51.572;6.578;2023-03-12T08:52:41;8.60;58.70
31677;DHT22;18385;51.572;6.578;2023-03-12T08:55:08;8.60;58.90
31677;DHT22;18385;51.572;6.578;2023-03-12T08:57:33;8.50;59.00
31677;DHT22;18385;51.572;6.578;2023-03-12T08:59:59;8.50;59.00
31677;DHT22;18385;51.572;6.578;2023-03-12T09:02:25;8.40;59.10
31677;DHT22;18385;51.572;6.578;2023-03-12T09:04:50;8.30;59.30
31677;DHT22;18385;51.572;6.578;2023-03-12T09:07:16;8.30;59.40
31677;DHT22;18385;51.572;6.578;2023-03-12T09:09:46;8.30;59.50
31677;DHT22;18385;51.572;6.578;2023-03-12T09:12:12;8.30;59.70
31677;DHT22;18385;51.572;6.578;2023-03-12T09:14:38;8.40;59.70
31677;DHT22;18385;51.572;6.578;2023-03-12T09:17:03;8.30;59.70
31677;DHT22;18385;51.572;6.578;2023-03-12T09:19:29;8.30;59.80
31677;DHT22;18385;51.572;6.578;2023-03-12T09:21:55;8.40;59.90
31677;DHT22;18385;51.572;6.578;2023-03-12T09:24:20;8.40;60.00
31677;DHT22;18385;51.572;6.578;2023-03-12T09:26:46;8.50;60.00
31677;DHT22;18385;51.572;6.578;2023-03-12T09:29:12;8.50;60.10
31677;DHT22;18385;51.572;6.578;2023-03-12T09:31:37;8.50;60.10
31677;DHT22;18385;51.572;6.578;2023-03-12T09:34:03;8.50;60.20
31677;DHT22;18385;51.572;6.578;2023-03-12T09:36:29;8.50;60.20
31677;DHT22;18385;51.572;6.578;2023-03-12T09:38:55;8.60;60.40
31677;DHT22;18385;51.572;6.578;2023-03-12T09:41:24;8.60;60.40
31677;DHT22;18385;51.572;6.578;2023-03-12T09:46:57;8.70;60.50
31677;DHT22;18385;51.572;6.578;2023-03-12T09:49:55;8.70;60.60
31677;DHT22;18385;51.572;6.578;2023-03-12T09:52:29;8.80;60.70
31677;DHT22;18385;51.572;6.578;2023-03-12T09:55:12;8.70;60.80
31677;DHT22;18385;51.572;6.578;2023-03-12T09:57:46;8.80;60.90
31677;DHT22;18385;51.572;6.578;2023-03-12T10:00:14;8.80;61.00
31677;DHT22;18385;51.572;6.578;2023-03-12T10:07:54;9.10;61.50
31677;DHT22;18385;51.572;6.578;2023-03-12T10:10:27;9.20;61.40
31677;DHT22;18385;51.572;6.578;2023-03-12T10:13:12;9.40;61.60
31677;DHT22;18385;51.572;6.578;2023-03-12T10:24:21;9.60;61.30
31677;DHT22;18385;51.572;6.578;2023-03-12T10:26:54;9.80;61.60
31677;DHT22;18385;51.572;6.578;2023-03-12T10:29:29;9.90;61.40
31677;DHT22;18385;51.572;6.578;2023-03-12T10:32:03;9.90;61.40
31677;DHT22;18385;51.572;6.578;2023-03-12T10:34:48;9.90;61.50
31677;DHT22;18385;51.572;6.578;2023-03-12T10:37:38;10.00;61.60
31677;DHT22;18385;51.572;6.578;2023-03-12T10:40:05;10.00;61.80
31677;DHT22;18385;51.572;6.578;2023-03-12T10:42:31;10.00;61.90
31677;DHT22;18385;51.572;6.578;2023-03-12T10:47:41;10.40;62.00
31677;DHT22;18385;51.572;6.578;2023-03-12T10:50:14;10.30;61.60
31677;DHT22;18385;51.572;6.578;2023-03-12T10:52:41;10.40;62.00
31677;DHT22;18385;51.572;6.578;2023-03-12T10:55:28;10.40;62.20
31677;DHT22;18385;51.572;6.578;2023-03-12T10:57:55;10.70;62.40
31677;DHT22;18385;51.572;6.578;2023-03-12T11:00:26;10.90;62.40
31677;DHT22;18385;51.572;6.578;2023-03-12T11:03:04;11.10;62.30
31677;DHT22;18385;51.572;6.578;2023-03-12T11:05:35;11.20;62.00
31677;DHT22;18385;51.572;6.578;2023-03-12T11:08:20;11.20;61.90
31677;DHT22;18385;51.572;6.578;2023-03-12T11:10:48;11.30;62.00
31677;DHT22;18385;51.572;6.578;2023-03-12T11:13:35;11.40;61.90
31677;DHT22;18385;51.572;6.578;2023-03-12T11:18:59;11.60;62.10
31677;DHT22;18385;51.572;6.578;2023-03-12T11:21:27;11.70;62.30
31677;DHT22;18385;51.572;6.578;2023-03-12T11:26:30;12.00;62.10
31677;DHT22;18385;51.572;6.578;2023-03-12T11:31:41;12.30;62.20
31677;DHT22;18385;51.572;6.578;2023-03-12T11:34:21;12.60;62.20
31677;DHT22;18385;51.572;6.578;2023-03-12T11:36:59;12.90;62.00
31677;DHT22;18385;51.572;6.578;2023-03-12T11:39:54;13.10;61.70
31677;DHT22;18385;51.572;6.578;2023-03-12T11:42:41;13.50;61.70
31677;DHT22;18385;51.572;6.578;2023-03-12T11:50:49;14.00;61.10
31677;DHT22;18385;51.572;6.578;2023-03-12T11:59:21;14.00;61.10
31677;DHT22;18385;51.572;6.578;2023-03-12T12:07:38;14.10;62.20
31677;DHT22;18385;51.572;6.578;2023-03-12T12:21:41;13.90;62.30
31677;DHT22;18385;51.572;6.578;2023-03-12T12:27:12;13.90;63.40
31677;DHT22;18385;51.572;6.578;2023-03-12T12:32:12;13.90;62.80
31677;DHT22;18385;51.572;6.578;2023-03-12T12:34:51;14.00;63.00
31677;DHT22;18385;51.572;6.578;2023-03-12T12:42:38;14.20;63.00
31677;DHT22;18385;51.572;6.578;2023-03-12T12:45:12;14.30;63.00
31677;DHT22;18385;51.572;6.578;2023-03-12T12:47:46;14.50;63.30
31677;DHT22;18385;51.572;6.578;2023-03-12T12:50:18;14.80;63.20
31677;DHT22;18385;51.572;6.578;2023-03-12T12:52:50;14.90;62.50
31677;DHT22;18385;51.572;6.578;2023-03-12T12:55:39;14.90;62.40
31677;DHT22;18385;51.572;6.578;2023-03-12T12:58:24;15.10;62.60
31677;DHT22;18385;51.572;6.578;2023-03-12T13:00:52;15.10;62.70
31677;DHT22;18385;51.572;6.578;2023-03-12T13:03:23;15.30;62.60
31677;DHT22;18385;51.572;6.578;2023-03-12T13:06:02;15.40;62.30
31677;DHT22;18385;51.572;6.578;2023-03-12T13:13:48;15.60;62.40
31677;DHT22;18385;51.572;6.578;2023-03-12T13:18:58;16.10;62.50
31677;DHT22;18385;51.572;6.578;2023-03-12T13:29:47;16.30;61.40
31677;DHT22;18385;51.572;6.578;2023-03-12T13:40:37;16.40;61.80
31677;DHT22;18385;51.572;6.578;2023-03-12T13:43:15;16.50;61.50
31677;DHT22;18385;51.572;6.578;2023-03-12T13:46:00;16.40;61.40
31677;DHT22;18385;51.572;6.578;2023-03-12T13:48:30;16.40;61.50
31677;DHT22;18385;51.572;6.578;2023-03-12T13:50:59;16.40;61.90
31677;DHT22;18385;51.572;6.578;2023-03-12T13:53:33;16.50;61.90
31677;DHT22;18385;51.572;6.578;2023-03-12T13:56:13;16.60;61.90
31677;DHT22;18385;51.572;6.578;2023-03-12T14:01:26;16.40;61.40
31677;DHT22;18385;51.572;6.578;2023-03-12T14:03:59;16.40;61.60
31677;DHT22;18385;51.572;6.578;2023-03-12T14:06:28;16.40;61.60
31677;DHT22;18385;51.572;6.578;2023-03-12T14:09:07;16.40;61.70
31677;DHT22;18385;51.572;6.578;2023-03-12T14:12:07;16.40;61.60
31677;DHT22;18385;51.572;6.578;2023-03-12T14:17:38;16.00;61.60
31677;DHT22;18385;51.572;6.578;2023-03-12T14:20:15;15.90;61.80
31677;DHT22;18385;51.572;6.578;2023-03-12T14:22:44;15.90;61.90
31677;DHT22;18385;51.572;6.578;2023-03-12T14:25:21;15.90;62.00
31677;DHT22;18385;51.572;6.578;2023-03-12T14:27:50;15.90;61.90
31677;DHT22;18385;51.572;6.578;2023-03-12T14:30:24;16.00;62.10
31677;DHT22;18385;51.572;6.578;2023-03-12T14:32:56;16.10;62.00
31677;DHT22;18385;51.572;6.578;2023-03-12T14:35:23;16.30;61.80
31677;DHT22;18385;51.572;6.578;2023-03-12T14:40:47;16.80;62.00
31677;DHT22;18385;51.572;6.578;2023-03-12T14:43:25;16.90;61.10
31677;DHT22;18385;51.572;6.578;2023-03-12T14:45:56;17.10;60.80
31677;DHT22;18385;51.572;6.578;2023-03-12T14:48:27;17.20;60.80
31677;DHT22;18385;51.572;6.578;2023-03-12T14:50:54;17.80;61.20
31677;DHT22;18385;51.572;6.578;2023-03-12T14:53:26;18.20;59.80
31677;DHT22;18385;51.572;6.578;2023-03-12T14:58:45;17.90;58.60
31677;DHT22;18385;51.572;6.578;2023-03-12T15:01:22;17.60;58.70
31677;DHT22;18385;51.572;6.578;2023-03-12T15:03:52;17.30;59.00
31677;DHT22;18385;51.572;6.578;2023-03-12T15:09:19;16.70;59.40
31677;DHT22;18385;51.572;6.578;2023-03-12T15:12:03;16.50;59.70
31677;DHT22;18385;51.572;6.578;2023-03-12T15:14:33;16.40;59.90
31677;DHT22;18385;51.572;6.578;2023-03-12T15:17:02;16.30;60.00
31677;DHT22;18385;51.572;6.578;2023-03-12T15:19:32;16.30;60.00
31677;DHT22;18385;51.572;6.578;2023-03-12T15:22:00;16.20;59.80
31677;DHT22;18385;51.572;6.578;2023-03-12T15:24:37;16.10;60.00
31677;DHT22;18385;51.572;6.578;2023-03-12T15:27:30;16.10;59.90
31677;DHT22;18385;51.572;6.578;2023-03-12T15:29:58;16.00;59.90
31677;DHT22;18385;51.572;6.578;2023-03-12T15:32:25;15.90;60.00
31677;DHT22;18385;51.572;6.578;2023-03-12T15:34:54;15.90;60.00
31677;DHT22;18385;51.572;6.578;2023-03-12T15:40:01;15.90;60.00
31677;DHT22;18385;51.572;6.578;2023-03-12T15:42:39;15.90;60.10
31677;DHT22;18385;51.572;6.578;2023-03-12T15:45:16;15.90;60.00
31677;DHT22;18385;51.572;6.578;2023-03-12T15:47:43;15.90;59.80
31677;DHT22;18385;51.572;6.578;2023-03-12T15:50:24;15.90;59.80
31677;DHT22;18385;51.572;6.578;2023-03-12T15:53:27;15.90;59.60
31677;DHT22;18385;51.572;6.578;2023-03-12T15:56:00;15.90;59.50
31677;DHT22;18385;51.572;6.578;2023-03-12T15:58:35;15.80;59.50
31677;DHT22;18385;51.572;6.578;2023-03-12T16:01:11;15.70;59.50
31677;DHT22;18385;51.572;6.578;2023-03-12T16:03:37;15.70;59.40
31677;DHT22;18385;51.572;6.578;2023-03-12T16:06:04;15.60;59.50
31677;DHT22;18385;51.572;6.578;2023-03-12T16:08:39;15.60;59.50
31677;DHT22;18385;51.572;6.578;2023-03-12T16:11:17;15.50;59.40
31677;DHT22;18385;51.572;6.578;2023-03-12T16:13:44;15.60;59.50
31677;DHT22;18385;51.572;6.578;2023-03-12T16:16:12;15.50;59.40
31677;DHT22;18385;51.572;6.578;2023-03-12T16:18:38;15.50;59.40
31677;DHT22;18385;51.572;6.578;2023-03-12T16:21:04;15.50;59.30
31677;DHT22;18385;51.572;6.578;2023-03-12T16:23:30;15.50;59.30
31677;DHT22;18385;51.572;6.578;2023-03-12T16:25:57;15.40;59.30
31677;DHT22;18385;51.572;6.578;2023-03-12T16:28:24;15.40;59.30
31677;DHT22;18385;51.572;6.578;2023-03-12T16:30:50;15.50;59.40
31677;DHT22;18385;51.572;6.578;2023-03-12T16:33:19;15.40;59.20
31677;DHT22;18385;51.572;6.578;2023-03-12T16:35:45;15.40;59.20
31677;DHT22;18385;51.572;6.578;2023-03-12T16:38:11;15.40;59.20
31677;DHT22;18385;51.572;6.578;2023-03-12T16:40:46;15.40;59.10
31677;DHT22;18385;51.572;6.578;2023-03-12T16:43:18;15.40;59.10
31677;DHT22;18385;51.572;6.578;2023-03-12T16:45:44;15.30;59.00
31677;DHT22;18385;51.572;6.578;2023-03-12T16:48:17;15.30;59.10
31677;DHT22;18385;51.572;6.578;2023-03-12T16:50:48;15.20;59.00
31677;DHT22;18385;51.572;6.578;2023-03-12T16:53:15;15.20;59.60
31677;DHT22;18385;51.572;6.578;2023-03-12T16:55:53;15.20;59.00
31677;DHT22;18385;51.572;6.578;2023-03-12T16:58:21;15.10;58.90
31677;DHT22;18385;51.572;6.578;2023-03-12T17:00:48;15.10;58.90
31677;DHT22;18385;51.572;6.578;2023-03-12T17:03:33;15.00;58.90
31677;DHT22;18385;51.572;6.578;2023-03-12T17:06:01;15.00;58.90
31677;DHT22;18385;51.572;6.578;2023-03-12T17:08:26;14.90;59.00
31677;DHT22;18385;51.572;6.578;2023-03-12T17:10:54;14.90;59.00
31677;DHT22;18385;51.572;6.578;2023-03-12T17:13:25;14.80;58.90
31677;DHT22;18385;51.572;6.578;2023-03-12T17:15:51;14.70;58.90
31677;DHT22;18385;51.572;6.578;2023-03-12T17:18:18;14.70;59.00
31677;DHT22;18385;51.572;6.578;2023-03-12T17:20:45;14.70;59.00
31677;DHT22;18385;51.572;6.578;2023-03-12T17:23:11;14.70;59.00
31677;DHT22;18385;51.572;6.578;2023-03-12T17:25:39;14.70;58.90
31677;DHT22;18385;51.572;6.578;2023-03-12T17:28:06;14.60;58.80
31677;DHT22;18385;51.572;6.578;2023-03-12T17:30:32;14.50;58.90
31677;DHT22;18385;51.572;6.578;2023-03-12T17:33:25;14.50;59.00
31677;DHT22;18385;51.572;6.578;2023-03-12T17:36:01;14.40;58.90
31677;DHT22;18385;51.572;6.578;2023-03-12T17:38:27;14.40;59.00
31677;DHT22;18385;51.572;6.578;2023-03-12T17:40:55;14.40;59.10
31677;DHT22;18385;51.572;6.578;2023-03-12T17:43:20;14.40;59.00
31677;DHT22;18385;51.572;6.578;2023-03-12T17:45:46;14.50;59.00
31677;DHT22;18385;51.572;6.578;2023-03-12T17:48:12;14.40;58.90